Hydrus — WDJ3145 — position and weather

sailwx.info

Track history (hours):
 
Tides and Currents Weather Stations Pressure Air Temp Water Temp Dewpoint Dewpoint Depression Visibility Wind Speed Wind Dir Waves Ship Positions

Hydrus

Owner: San Francisco Bay Area Water Emergency Transportation Authority, San Francisco, CA. More information available from US FCC via Universal Licensing System and Coast Guard Vessel Documentation Center.

Last reported at 2018-Apr-22 18:01 UTC. Time now 2018-Apr-22 18:15 UTC.
Position N 37°48' W 122°20'.

Length 41 m; draft 2 m.

Type: Passenger vessel. MMSI: 367765240.

Date/timePositionNaut miles runAvg speedWind from/ knotsBaromVisibWave heightAir tempDewpointWater temp
2018-Apr-22 18:01N 37°48' W 122°20'4 8.4
2018-Apr-22 17:30N 37°49' W 122°25'611.4
2018-Apr-22 17:00N 37°47' W 122°18'0 0.9
2018-Apr-22 16:31N 37°48' W 122°17'612.2
2018-Apr-22 16:00N 37°49' W 122°25'0 0.0
2018-Apr-22 15:30N 37°49' W 122°25'0 0.0
2018-Apr-22 04:12N 37°49' W 122°25'0 0.0
2018-Apr-22 04:00N 37°49' W 122°25'612.3
2018-Apr-22 03:30N 37°48' W 122°17'1 1.2
2018-Apr-22 03:01N 37°47' W 122°18'611.3
2018-Apr-22 02:30N 37°49' W 122°25'1 2.8
2018-Apr-22 02:01N 37°48' W 122°24'510.6
2018-Apr-22 01:30N 37°48' W 122°17'4 8.7
2018-Apr-22 01:00N 37°48' W 122°22'2 4.3
2018-Apr-22 00:30N 37°49' W 122°25'510.6
2018-Apr-22 00:00N 37°48' W 122°18'0 1.0
2018-Apr-21 23:30N 37°47' W 122°18'5 9.2
2018-Apr-21 23:01N 37°48' W 122°23'1 2.6
2018-Apr-21 22:30N 37°49' W 122°25'0 0.0
2018-Apr-21 22:00N 37°49' W 122°25'1 2.6
2018-Apr-21 21:30N 37°48' W 122°24'510.7
2018-Apr-21 21:00N 37°48' W 122°17'2 4.2
2018-Apr-21 20:31N 37°48' W 122°19'4 8.5
2018-Apr-21 20:00N 37°49' W 122°25'2 4.2
2018-Apr-21 19:31N 37°48' W 122°22'4 7.5
2018-Apr-21 19:01N 37°47' W 122°18'5 9.1
2018-Apr-21 18:30N 37°48' W 122°24'1 0.1
2018-Apr-21 05:34N 37°49' W 122°25'0 0.0
2018-Apr-21 05:30N 37°49' W 122°25'612.6
2018-Apr-21 05:00N 37°48' W 122°17'510.7
2018-Apr-21 04:31N 37°48' W 122°24'0 0.0
2018-Apr-21 04:01N 37°48' W 122°24'0 0.0
2018-Apr-21 03:30N 37°48' W 122°24'0 0.3
2018-Apr-21 03:01N 37°48' W 122°23'510.3
2018-Apr-21 02:30N 37°48' W 122°17'5 9.8
2018-Apr-21 02:00N 37°48' W 122°23'5 9.8
2018-Apr-21 01:31N 37°48' W 122°17'2 4.9
2018-Apr-21 01:01N 37°48' W 122°20'1 1.6
2018-Apr-21 00:31N 37°48' W 122°21'3 5.6
2018-Apr-21 00:01N 37°48' W 122°17'5 9.7
2018-Apr-20 23:30N 37°48' W 122°24'5 9.2
2018-Apr-20 23:00N 37°48' W 122°18'0 0.2
2018-Apr-20 22:30N 37°47' W 122°18'5 9.6
2018-Apr-20 22:00N 37°49' W 122°24'1 2.0
2018-Apr-20 21:30N 37°49' W 122°25'0 0.0
2018-Apr-20 21:00N 37°49' W 122°25'0 0.0
2018-Apr-20 20:30N 37°49' W 122°25'0 0.0
2018-Apr-20 20:00N 37°49' W 122°25'0 0.5
2018-Apr-20 19:31N 37°49' W 122°25'611.1
2018-Apr-20 19:00N 37°47' W 122°18'0 0.3
2018-Apr-20 18:31N 37°47' W 122°18'510.9
2018-Apr-20 18:00N 37°49' W 122°25'0 0.0
2018-Apr-20 17:30N 37°49' W 122°25'0 0.0
2018-Apr-20 17:00N 37°49' W 122°25'0 0.0
2018-Apr-20 16:30N 37°49' W 122°25'4 7.6
2018-Apr-20 16:00N 37°48' W 122°20'3 5.2
2018-Apr-20 15:30N 37°48' W 122°17'5 9.7
2018-Apr-20 15:00N 37°48' W 122°23'5 9.7
2018-Apr-20 14:31N 37°48' W 122°17'510.5
2018-Apr-20 14:00N 37°48' W 122°24'510.7
2018-Apr-20 13:31N 37°48' W 122°17'1 1.6
2018-Apr-20 13:00N 37°48' W 122°18'610.8
2018-Apr-20 12:30N 37°49' W 122°25'0 0.0
2018-Apr-20 05:34N 37°49' W 122°25'0 0.0
2018-Apr-20 05:30N 37°49' W 122°25'612.7
2018-Apr-20 05:00N 37°48' W 122°17'510.6
2018-Apr-20 04:30N 37°48' W 122°24'0 0.0
2018-Apr-20 04:00N 37°48' W 122°24'0 0.0
2018-Apr-20 03:30N 37°48' W 122°24'0 0.0
2018-Apr-20 03:00N 37°48' W 122°24'510.3
2018-Apr-20 02:30N 37°48' W 122°17'4 8.5
2018-Apr-20 02:01N 37°48' W 122°22'3 5.4
2018-Apr-20 01:31N 37°48' W 122°19'0 0.4
2018-Apr-20 01:00N 37°48' W 122°19'2 4.3
2018-Apr-20 00:31N 37°48' W 122°21'3 6.2
2018-Apr-20 00:00N 37°48' W 122°17'5 9.6
2018-Apr-19 23:30N 37°48' W 122°24'4 8.9
2018-Apr-19 23:01N 37°48' W 122°18'0 0.6
2018-Apr-19 22:31N 37°48' W 122°18'5 9.2
2018-Apr-19 22:01N 37°49' W 122°24'1 1.6
2018-Apr-19 21:30N 37°49' W 122°25'0 0.0
2018-Apr-19 21:00N 37°49' W 122°25'0 0.0
2018-Apr-19 20:30N 37°49' W 122°25'0 0.0
2018-Apr-19 20:00N 37°49' W 122°25'0 0.6
2018-Apr-19 19:30N 37°49' W 122°25'5 9.7
2018-Apr-19 19:00N 37°48' W 122°19'0 1.0
2018-Apr-19 18:30N 37°47' W 122°18'510.8
2018-Apr-19 18:01N 37°49' W 122°25'1 1.8
2018-Apr-19 17:31N 37°48' W 122°24'0 0.0
2018-Apr-19 17:01N 37°48' W 122°24'0 0.0
2018-Apr-19 16:30N 37°48' W 122°24'3 6.8
2018-Apr-19 16:00N 37°48' W 122°20'2 4.4
2018-Apr-19 15:30N 37°48' W 122°17'4 8.8
2018-Apr-19 15:01N 37°48' W 122°22'4 8.7
2018-Apr-19 14:30N 37°48' W 122°17'510.5
2018-Apr-19 14:00N 37°48' W 122°23'510.5
2018-Apr-19 13:30N 37°48' W 122°17'1 2.9
2018-Apr-19 13:00N 37°48' W 122°19'5 9.8
2018-Apr-19 12:30N 37°49' W 122°25'0 0.0
2018-Apr-19 03:53N 37°49' W 122°25'1 3.5
2018-Apr-19 03:30N 37°48' W 122°24'5 9.7
2018-Apr-19 03:00N 37°48' W 122°17'4 7.2
2018-Apr-19 02:31N 37°48' W 122°22'4 8.1
2018-Apr-19 02:00N 37°48' W 122°17'510.4
2018-Apr-19 01:30N 37°48' W 122°23'510.4
2018-Apr-19 01:00N 37°48' W 122°17'2 4.4
2018-Apr-19 00:31N 37°48' W 122°20'3 6.2
2018-Apr-19 00:00N 37°48' W 122°24'510.6
2018-Apr-18 23:30N 37°48' W 122°17'0 0.0
2018-Apr-18 23:00N 37°48' W 122°17'612.7
2018-Apr-18 22:30N 37°49' W 122°25'1 1.9
2018-Apr-18 22:00N 37°48' W 122°24'0 0.4
2018-Apr-18 21:30N 37°48' W 122°24'0 0.0
2018-Apr-18 21:00N 37°48' W 122°24'0 0.0
2018-Apr-18 20:30N 37°48' W 122°24'0 0.0
2018-Apr-18 20:00N 37°48' W 122°24'0 0.0
2018-Apr-18 19:30N 37°48' W 122°24'0 0.0
2018-Apr-18 19:00N 37°48' W 122°24'1 2.4
2018-Apr-18 18:30N 37°48' W 122°22'1 2.4
2018-Apr-18 18:01N 37°48' W 122°24'0 0.0
2018-Apr-18 17:30N 37°48' W 122°24'0 0.0
2018-Apr-18 17:00N 37°48' W 122°24'0 0.9
2018-Apr-18 16:31N 37°48' W 122°24'4 8.0
2018-Apr-18 16:00N 37°48' W 122°18'1 1.5
2018-Apr-18 15:30N 37°48' W 122°17'4 8.2
2018-Apr-18 15:01N 37°48' W 122°23'5 9.1
2018-Apr-18 14:30N 37°48' W 122°17'510.7
2018-Apr-18 14:00N 37°48' W 122°24'510.6
2018-Apr-18 13:30N 37°48' W 122°17'2 3.2
2018-Apr-18 13:00N 37°48' W 122°19'5 9.5
2018-Apr-18 12:30N 37°49' W 122°25'0 0.0
2018-Apr-18 03:39N 37°49' W 122°25'1 5.2
2018-Apr-18 03:30N 37°49' W 122°24'510.4
2018-Apr-18 03:00N 37°48' W 122°17'4 7.1
2018-Apr-18 02:30N 37°48' W 122°22'4 7.6
2018-Apr-18 02:00N 37°48' W 122°17'4 8.0
2018-Apr-18 01:30N 37°48' W 122°22'4 7.8
2018-Apr-18 01:01N 37°48' W 122°17'2 3.9
2018-Apr-18 00:30N 37°48' W 122°20'3 6.2
2018-Apr-18 00:00N 37°48' W 122°24'5 9.2
2018-Apr-17 23:30N 37°47' W 122°18'0 0.0
2018-Apr-17 23:00N 37°47' W 122°18'611.4
2018-Apr-17 22:30N 37°49' W 122°25'0 0.0
2018-Apr-17 22:00N 37°49' W 122°25'0 0.0
2018-Apr-17 21:30N 37°49' W 122°25'0 0.0
2018-Apr-17 21:00N 37°49' W 122°25'0 0.0
2018-Apr-17 20:30N 37°49' W 122°25'0 0.0
2018-Apr-17 20:00N 37°49' W 122°25'0 0.0
2018-Apr-17 19:30N 37°49' W 122°25'0 0.0
2018-Apr-17 19:00N 37°49' W 122°25'0 0.0
2018-Apr-17 18:30N 37°49' W 122°25'0 0.0
2018-Apr-17 18:00N 37°49' W 122°25'0 0.0
2018-Apr-17 17:30N 37°49' W 122°25'0 0.2
2018-Apr-17 17:01N 37°49' W 122°25'510.7
2018-Apr-17 16:31N 37°48' W 122°18'1 1.2
2018-Apr-17 16:01N 37°48' W 122°17'3 6.6
2018-Apr-17 15:31N 37°48' W 122°22'2 5.0
2018-Apr-17 15:01N 37°48' W 122°18'4 7.5
2018-Apr-17 14:31N 37°48' W 122°23'510.0
2018-Apr-17 14:00N 37°48' W 122°17'4 7.2
2018-Apr-17 13:30N 37°48' W 122°21'3 5.8
2018-Apr-17 13:00N 37°47' W 122°18'3 5.3
2018-Apr-17 12:31N 37°48' W 122°21'3 6.0
2018-Apr-17 12:01N 37°49' W 122°25'0 0.0
2018-Apr-17 03:53N 37°49' W 122°25'0 0.5
2018-Apr-17 03:30N 37°49' W 122°25'612.3
2018-Apr-17 03:00N 37°48' W 122°17'4 7.7
2018-Apr-17 02:30N 37°48' W 122°22'4 7.4
2018-Apr-17 02:00N 37°48' W 122°17'3 6.9
2018-Apr-17 01:31N 37°48' W 122°22'4 7.1
2018-Apr-17 01:00N 37°48' W 122°17'2 3.9
2018-Apr-17 00:30N 37°48' W 122°20'3 6.2
2018-Apr-17 00:00N 37°48' W 122°24'510.4
2018-Apr-16 23:30N 37°48' W 122°17'0 0.0
2018-Apr-16 23:00N 37°48' W 122°17'611.5
2018-Apr-16 22:27N 37°49' W 122°25'0 0.0
2018-Apr-16 22:01N 37°49' W 122°25'0 0.0
2018-Apr-16 21:28N 37°49' W 122°25'0 0.0
2018-Apr-16 20:58N 37°49' W 122°25'0 0.0
2018-Apr-16 20:25N 37°49' W 122°25'0 0.0
2018-Apr-16 20:00N 37°49' W 122°25'0 0.0
2018-Apr-16 19:28N 37°49' W 122°25'0 0.0
2018-Apr-16 18:57N 37°49' W 122°25'0 0.0
2018-Apr-16 18:31N 37°49' W 122°25'0 0.0
2018-Apr-16 17:57N 37°49' W 122°25'0 0.0
2018-Apr-16 17:27N 37°49' W 122°25'1 1.4
2018-Apr-16 17:00N 37°49' W 122°24'510.1
2018-Apr-16 16:30N 37°47' W 122°18'0 0.5
2018-Apr-16 16:00N 37°48' W 122°18'3 6.3
2018-Apr-16 15:30N 37°48' W 122°21'3 5.3
2018-Apr-16 15:00N 37°48' W 122°18'4 8.0
2018-Apr-16 14:30N 37°48' W 122°23'510.1
2018-Apr-16 14:01N 37°48' W 122°17'4 8.5
2018-Apr-16 13:30N 37°48' W 122°22'4 6.8
2018-Apr-16 12:58N 37°47' W 122°18'510.0
2018-Apr-16 12:31N 37°48' W 122°23'1 1.9
2018-Apr-16 11:56N 37°49' W 122°25'0 0.0
2018-Apr-16 03:48N 37°49' W 122°25'1 3.1
2018-Apr-16 03:30N 37°48' W 122°24'0 0.1
2018-Apr-16 02:54N 37°48' W 122°24'0 0.0
2018-Apr-16 02:30N 37°48' W 122°24'0 0.0
2018-Apr-16 02:00N 37°48' W 122°24'0 0.0
2018-Apr-16 01:30N 37°48' W 122°24'0 0.0
2018-Apr-14 05:36N 37°48' W 122°24'0 0.0
2018-Apr-14 05:30N 37°48' W 122°24'611.0
2018-Apr-14 05:00N 37°48' W 122°17'510.5
2018-Apr-14 04:30N 37°48' W 122°24'0 0.0
2018-Apr-14 04:00N 37°48' W 122°24'0 0.0
2018-Apr-14 03:30N 37°48' W 122°24'0 0.0
2018-Apr-14 03:00N 37°48' W 122°24'510.2
2018-Apr-14 02:30N 37°48' W 122°17'4 8.4
2018-Apr-14 02:01N 37°48' W 122°22'3 5.5
2018-Apr-14 01:30N 37°48' W 122°19'1 1.5
2018-Apr-14 01:00N 37°47' W 122°18'4 8.2
2018-Apr-14 00:30N 37°48' W 122°23'5 9.5
2018-Apr-14 00:01N 37°48' W 122°17'510.0
2018-Apr-13 23:30N 37°48' W 122°24'4 8.5
2018-Apr-13 23:00N 37°48' W 122°18'0 0.4
2018-Apr-13 22:31N 37°47' W 122°18'5 9.7
2018-Apr-13 22:01N 37°49' W 122°24'1 1.6
2018-Apr-13 21:30N 37°49' W 122°25'0 0.0
2018-Apr-13 21:00N 37°49' W 122°25'0 0.0
2018-Apr-13 20:30N 37°49' W 122°25'0 0.0
2018-Apr-13 20:00N 37°49' W 122°25'0 0.2
2018-Apr-13 19:31N 37°49' W 122°25'510.6
2018-Apr-13 19:01N 37°48' W 122°18'0 0.1
2018-Apr-13 18:31N 37°48' W 122°18'510.4
2018-Apr-13 18:00N 37°49' W 122°25'0 0.0
2018-Apr-13 17:30N 37°49' W 122°25'0 0.0
2018-Apr-13 17:00N 37°49' W 122°25'0 0.0
2018-Apr-13 16:30N 37°49' W 122°25'4 7.8
2018-Apr-13 16:01N 37°48' W 122°20'2 4.9
2018-Apr-13 15:30N 37°48' W 122°17'5 9.6
2018-Apr-13 15:00N 37°48' W 122°23'5 9.3
2018-Apr-13 14:30N 37°48' W 122°17'0 0.0
2018-Apr-13 13:30N 37°48' W 122°17'2 3.5
2018-Apr-13 13:01N 37°48' W 122°19'5 9.2
2018-Apr-13 12:31N 37°49' W 122°25'0 0.0
2018-Apr-13 03:45N 37°49' W 122°25'1 4.9
2018-Apr-13 03:31N 37°48' W 122°24'510.4
2018-Apr-13 03:00N 37°48' W 122°17'5 9.9
2018-Apr-13 02:31N 37°48' W 122°23'5 9.9
2018-Apr-13 02:00N 37°48' W 122°17'510.6
2018-Apr-13 01:31N 37°48' W 122°23'510.0
2018-Apr-13 01:00N 37°48' W 122°17'2 4.3
2018-Apr-13 00:30N 37°48' W 122°20'3 6.0
2018-Apr-13 00:01N 37°48' W 122°24'2 3.8
2018-Apr-12 23:30N 37°48' W 122°21'3 6.9
2018-Apr-12 23:00N 37°48' W 122°17'612.5
2018-Apr-12 22:30N 37°49' W 122°25'0 0.0
2018-Apr-12 22:00N 37°49' W 122°25'0 0.0
2018-Apr-12 21:30N 37°49' W 122°25'0 0.0
2018-Apr-12 21:00N 37°49' W 122°25'0 0.0
2018-Apr-12 20:30N 37°49' W 122°25'0 0.0
2018-Apr-12 20:00N 37°49' W 122°25'0 0.0
2018-Apr-12 19:30N 37°49' W 122°25'0 0.0
2018-Apr-12 19:00N 37°49' W 122°25'0 0.0
2018-Apr-12 18:30N 37°49' W 122°25'  
Track history (hours):
 
Tides and Currents Weather Stations Pressure Air Temp Water Temp Dewpoint Dewpoint Depression Visibility Wind Speed Wind Dir Waves Ship Positions

Hydrus

Owner: San Francisco Bay Area Water Emergency Transportation Authority, San Francisco, CA. More information available from US FCC via Universal Licensing System and Coast Guard Vessel Documentation Center.

Last reported at 2018-Apr-22 18:01 UTC. Time now 2018-Apr-22 18:15 UTC.
Position N 37°48' W 122°20'.

Length 41 m; draft 2 m.

Type: Passenger vessel. MMSI: 367765240.

Date/timePositionNaut miles runAvg speedWind from/ knotsBaromVisibWave heightAir tempDewpointWater temp
2018-Apr-22 18:01N 37°48' W 122°20'4 8.4
2018-Apr-22 17:30N 37°49' W 122°25'611.4
2018-Apr-22 17:00N 37°47' W 122°18'0 0.9
2018-Apr-22 16:31N 37°48' W 122°17'612.2
2018-Apr-22 16:00N 37°49' W 122°25'0 0.0
2018-Apr-22 15:30N 37°49' W 122°25'0 0.0
2018-Apr-22 04:12N 37°49' W 122°25'0 0.0
2018-Apr-22 04:00N 37°49' W 122°25'612.3
2018-Apr-22 03:30N 37°48' W 122°17'1 1.2
2018-Apr-22 03:01N 37°47' W 122°18'611.3
2018-Apr-22 02:30N 37°49' W 122°25'1 2.8
2018-Apr-22 02:01N 37°48' W 122°24'510.6
2018-Apr-22 01:30N 37°48' W 122°17'4 8.7
2018-Apr-22 01:00N 37°48' W 122°22'2 4.3
2018-Apr-22 00:30N 37°49' W 122°25'510.6
2018-Apr-22 00:00N 37°48' W 122°18'0 1.0
2018-Apr-21 23:30N 37°47' W 122°18'5 9.2
2018-Apr-21 23:01N 37°48' W 122°23'1 2.6
2018-Apr-21 22:30N 37°49' W 122°25'0 0.0
2018-Apr-21 22:00N 37°49' W 122°25'1 2.6
2018-Apr-21 21:30N 37°48' W 122°24'510.7
2018-Apr-21 21:00N 37°48' W 122°17'2 4.2
2018-Apr-21 20:31N 37°48' W 122°19'4 8.5
2018-Apr-21 20:00N 37°49' W 122°25'2 4.2
2018-Apr-21 19:31N 37°48' W 122°22'4 7.5
2018-Apr-21 19:01N 37°47' W 122°18'5 9.1
2018-Apr-21 18:30N 37°48' W 122°24'1 0.1
2018-Apr-21 05:34N 37°49' W 122°25'0 0.0
2018-Apr-21 05:30N 37°49' W 122°25'612.6
2018-Apr-21 05:00N 37°48' W 122°17'510.7
2018-Apr-21 04:31N 37°48' W 122°24'0 0.0
2018-Apr-21 04:01N 37°48' W 122°24'0 0.0
2018-Apr-21 03:30N 37°48' W 122°24'0 0.3
2018-Apr-21 03:01N 37°48' W 122°23'510.3
2018-Apr-21 02:30N 37°48' W 122°17'5 9.8
2018-Apr-21 02:00N 37°48' W 122°23'5 9.8
2018-Apr-21 01:31N 37°48' W 122°17'2 4.9
2018-Apr-21 01:01N 37°48' W 122°20'1 1.6
2018-Apr-21 00:31N 37°48' W 122°21'3 5.6
2018-Apr-21 00:01N 37°48' W 122°17'5 9.7
2018-Apr-20 23:30N 37°48' W 122°24'5 9.2
2018-Apr-20 23:00N 37°48' W 122°18'0 0.2
2018-Apr-20 22:30N 37°47' W 122°18'5 9.6
2018-Apr-20 22:00N 37°49' W 122°24'1 2.0
2018-Apr-20 21:30N 37°49' W 122°25'0 0.0
2018-Apr-20 21:00N 37°49' W 122°25'0 0.0
2018-Apr-20 20:30N 37°49' W 122°25'0 0.0
2018-Apr-20 20:00N 37°49' W 122°25'0 0.5
2018-Apr-20 19:31N 37°49' W 122°25'611.1
2018-Apr-20 19:00N 37°47' W 122°18'0 0.3
2018-Apr-20 18:31N 37°47' W 122°18'510.9
2018-Apr-20 18:00N 37°49' W 122°25'0 0.0
2018-Apr-20 17:30N 37°49' W 122°25'0 0.0
2018-Apr-20 17:00N 37°49' W 122°25'0 0.0
2018-Apr-20 16:30N 37°49' W 122°25'4 7.6
2018-Apr-20 16:00N 37°48' W 122°20'3 5.2
2018-Apr-20 15:30N 37°48' W 122°17'5 9.7
2018-Apr-20 15:00N 37°48' W 122°23'5 9.7
2018-Apr-20 14:31N 37°48' W 122°17'510.5
2018-Apr-20 14:00N 37°48' W 122°24'510.7
2018-Apr-20 13:31N 37°48' W 122°17'1 1.6
2018-Apr-20 13:00N 37°48' W 122°18'610.8
2018-Apr-20 12:30N 37°49' W 122°25'0 0.0
2018-Apr-20 05:34N 37°49' W 122°25'0 0.0
2018-Apr-20 05:30N 37°49' W 122°25'612.7
2018-Apr-20 05:00N 37°48' W 122°17'510.6
2018-Apr-20 04:30N 37°48' W 122°24'0 0.0
2018-Apr-20 04:00N 37°48' W 122°24'0 0.0
2018-Apr-20 03:30N 37°48' W 122°24'0 0.0
2018-Apr-20 03:00N 37°48' W 122°24'510.3
2018-Apr-20 02:30N 37°48' W 122°17'4 8.5
2018-Apr-20 02:01N 37°48' W 122°22'3 5.4
2018-Apr-20 01:31N 37°48' W 122°19'0 0.4
2018-Apr-20 01:00N 37°48' W 122°19'2 4.3
2018-Apr-20 00:31N 37°48' W 122°21'3 6.2
2018-Apr-20 00:00N 37°48' W 122°17'5 9.6
2018-Apr-19 23:30N 37°48' W 122°24'4 8.9
2018-Apr-19 23:01N 37°48' W 122°18'0 0.6
2018-Apr-19 22:31N 37°48' W 122°18'5 9.2
2018-Apr-19 22:01N 37°49' W 122°24'1 1.6
2018-Apr-19 21:30N 37°49' W 122°25'0 0.0
2018-Apr-19 21:00N 37°49' W 122°25'0 0.0
2018-Apr-19 20:30N 37°49' W 122°25'0 0.0
2018-Apr-19 20:00N 37°49' W 122°25'0 0.6
2018-Apr-19 19:30N 37°49' W 122°25'5 9.7
2018-Apr-19 19:00N 37°48' W 122°19'0 1.0
2018-Apr-19 18:30N 37°47' W 122°18'510.8
2018-Apr-19 18:01N 37°49' W 122°25'1 1.8
2018-Apr-19 17:31N 37°48' W 122°24'0 0.0
2018-Apr-19 17:01N 37°48' W 122°24'0 0.0
2018-Apr-19 16:30N 37°48' W 122°24'3 6.8
2018-Apr-19 16:00N 37°48' W 122°20'2 4.4
2018-Apr-19 15:30N 37°48' W 122°17'4 8.8
2018-Apr-19 15:01N 37°48' W 122°22'4 8.7
2018-Apr-19 14:30N 37°48' W 122°17'510.5
2018-Apr-19 14:00N 37°48' W 122°23'510.5
2018-Apr-19 13:30N 37°48' W 122°17'1 2.9
2018-Apr-19 13:00N 37°48' W 122°19'5 9.8
2018-Apr-19 12:30N 37°49' W 122°25'0 0.0
2018-Apr-19 03:53N 37°49' W 122°25'1 3.5
2018-Apr-19 03:30N 37°48' W 122°24'5 9.7
2018-Apr-19 03:00N 37°48' W 122°17'4 7.2
2018-Apr-19 02:31N 37°48' W 122°22'4 8.1
2018-Apr-19 02:00N 37°48' W 122°17'510.4
2018-Apr-19 01:30N 37°48' W 122°23'510.4
2018-Apr-19 01:00N 37°48' W 122°17'2 4.4
2018-Apr-19 00:31N 37°48' W 122°20'3 6.2
2018-Apr-19 00:00N 37°48' W 122°24'510.6
2018-Apr-18 23:30N 37°48' W 122°17'0 0.0
2018-Apr-18 23:00N 37°48' W 122°17'612.7
2018-Apr-18 22:30N 37°49' W 122°25'1 1.9
2018-Apr-18 22:00N 37°48' W 122°24'0 0.4
2018-Apr-18 21:30N 37°48' W 122°24'0 0.0
2018-Apr-18 21:00N 37°48' W 122°24'0 0.0
2018-Apr-18 20:30N 37°48' W 122°24'0 0.0
2018-Apr-18 20:00N 37°48' W 122°24'0 0.0
2018-Apr-18 19:30N 37°48' W 122°24'0 0.0
2018-Apr-18 19:00N 37°48' W 122°24'1 2.4
2018-Apr-18 18:30N 37°48' W 122°22'1 2.4
2018-Apr-18 18:01N 37°48' W 122°24'0 0.0
2018-Apr-18 17:30N 37°48' W 122°24'0 0.0
2018-Apr-18 17:00N 37°48' W 122°24'0 0.9
2018-Apr-18 16:31N 37°48' W 122°24'4 8.0
2018-Apr-18 16:00N 37°48' W 122°18'1 1.5
2018-Apr-18 15:30N 37°48' W 122°17'4 8.2
2018-Apr-18 15:01N 37°48' W 122°23'5 9.1
2018-Apr-18 14:30N 37°48' W 122°17'510.7
2018-Apr-18 14:00N 37°48' W 122°24'510.6
2018-Apr-18 13:30N 37°48' W 122°17'2 3.2
2018-Apr-18 13:00N 37°48' W 122°19'5 9.5
2018-Apr-18 12:30N 37°49' W 122°25'0 0.0
2018-Apr-18 03:39N 37°49' W 122°25'1 5.2
2018-Apr-18 03:30N 37°49' W 122°24'510.4
2018-Apr-18 03:00N 37°48' W 122°17'4 7.1
2018-Apr-18 02:30N 37°48' W 122°22'4 7.6
2018-Apr-18 02:00N 37°48' W 122°17'4 8.0
2018-Apr-18 01:30N 37°48' W 122°22'4 7.8
2018-Apr-18 01:01N 37°48' W 122°17'2 3.9
2018-Apr-18 00:30N 37°48' W 122°20'3 6.2
2018-Apr-18 00:00N 37°48' W 122°24'5 9.2
2018-Apr-17 23:30N 37°47' W 122°18'0 0.0
2018-Apr-17 23:00N 37°47' W 122°18'611.4
2018-Apr-17 22:30N 37°49' W 122°25'0 0.0
2018-Apr-17 22:00N 37°49' W 122°25'0 0.0
2018-Apr-17 21:30N 37°49' W 122°25'0 0.0
2018-Apr-17 21:00N 37°49' W 122°25'0 0.0
2018-Apr-17 20:30N 37°49' W 122°25'0 0.0
2018-Apr-17 20:00N 37°49' W 122°25'0 0.0
2018-Apr-17 19:30N 37°49' W 122°25'0 0.0
2018-Apr-17 19:00N 37°49' W 122°25'0 0.0
2018-Apr-17 18:30N 37°49' W 122°25'0 0.0
2018-Apr-17 18:00N 37°49' W 122°25'0 0.0
2018-Apr-17 17:30N 37°49' W 122°25'0 0.2
2018-Apr-17 17:01N 37°49' W 122°25'510.7
2018-Apr-17 16:31N 37°48' W 122°18'1 1.2
2018-Apr-17 16:01N 37°48' W 122°17'3 6.6
2018-Apr-17 15:31N 37°48' W 122°22'2 5.0
2018-Apr-17 15:01N 37°48' W 122°18'4 7.5
2018-Apr-17 14:31N 37°48' W 122°23'510.0
2018-Apr-17 14:00N 37°48' W 122°17'4 7.2
2018-Apr-17 13:30N 37°48' W 122°21'3 5.8
2018-Apr-17 13:00N 37°47' W 122°18'3 5.3
2018-Apr-17 12:31N 37°48' W 122°21'3 6.0
2018-Apr-17 12:01N 37°49' W 122°25'0 0.0
2018-Apr-17 03:53N 37°49' W 122°25'0 0.5
2018-Apr-17 03:30N 37°49' W 122°25'612.3
2018-Apr-17 03:00N 37°48' W 122°17'4 7.7
2018-Apr-17 02:30N 37°48' W 122°22'4 7.4
2018-Apr-17 02:00N 37°48' W 122°17'3 6.9
2018-Apr-17 01:31N 37°48' W 122°22'4 7.1
2018-Apr-17 01:00N 37°48' W 122°17'2 3.9
2018-Apr-17 00:30N 37°48' W 122°20'3 6.2
2018-Apr-17 00:00N 37°48' W 122°24'510.4
2018-Apr-16 23:30N 37°48' W 122°17'0 0.0
2018-Apr-16 23:00N 37°48' W 122°17'611.5
2018-Apr-16 22:27N 37°49' W 122°25'0 0.0
2018-Apr-16 22:01N 37°49' W 122°25'0 0.0
2018-Apr-16 21:28N 37°49' W 122°25'0 0.0
2018-Apr-16 20:58N 37°49' W 122°25'0 0.0
2018-Apr-16 20:25N 37°49' W 122°25'0 0.0
2018-Apr-16 20:00N 37°49' W 122°25'0 0.0
2018-Apr-16 19:28N 37°49' W 122°25'0 0.0
2018-Apr-16 18:57N 37°49' W 122°25'0 0.0
2018-Apr-16 18:31N 37°49' W 122°25'0 0.0
2018-Apr-16 17:57N 37°49' W 122°25'0 0.0
2018-Apr-16 17:27N 37°49' W 122°25'1 1.4
2018-Apr-16 17:00N 37°49' W 122°24'510.1
2018-Apr-16 16:30N 37°47' W 122°18'0 0.5
2018-Apr-16 16:00N 37°48' W 122°18'3 6.3
2018-Apr-16 15:30N 37°48' W 122°21'3 5.3
2018-Apr-16 15:00N 37°48' W 122°18'4 8.0
2018-Apr-16 14:30N 37°48' W 122°23'510.1
2018-Apr-16 14:01N 37°48' W 122°17'4 8.5
2018-Apr-16 13:30N 37°48' W 122°22'4 6.8
2018-Apr-16 12:58N 37°47' W 122°18'510.0
2018-Apr-16 12:31N 37°48' W 122°23'1 1.9
2018-Apr-16 11:56N 37°49' W 122°25'0 0.0
2018-Apr-16 03:48N 37°49' W 122°25'1 3.1
2018-Apr-16 03:30N 37°48' W 122°24'0 0.1
2018-Apr-16 02:54N 37°48' W 122°24'0 0.0
2018-Apr-16 02:30N 37°48' W 122°24'0 0.0
2018-Apr-16 02:00N 37°48' W 122°24'0 0.0
2018-Apr-16 01:30N 37°48' W 122°24'0 0.0
2018-Apr-14 05:36N 37°48' W 122°24'0 0.0
2018-Apr-14 05:30N 37°48' W 122°24'611.0
2018-Apr-14 05:00N 37°48' W 122°17'510.5
2018-Apr-14 04:30N 37°48' W 122°24'0 0.0
2018-Apr-14 04:00N 37°48' W 122°24'0 0.0
2018-Apr-14 03:30N 37°48' W 122°24'0 0.0
2018-Apr-14 03:00N 37°48' W 122°24'510.2
2018-Apr-14 02:30N 37°48' W 122°17'4 8.4
2018-Apr-14 02:01N 37°48' W 122°22'3 5.5
2018-Apr-14 01:30N 37°48' W 122°19'1 1.5
2018-Apr-14 01:00N 37°47' W 122°18'4 8.2
2018-Apr-14 00:30N 37°48' W 122°23'5 9.5
2018-Apr-14 00:01N 37°48' W 122°17'510.0
2018-Apr-13 23:30N 37°48' W 122°24'4 8.5
2018-Apr-13 23:00N 37°48' W 122°18'0 0.4
2018-Apr-13 22:31N 37°47' W 122°18'5 9.7
2018-Apr-13 22:01N 37°49' W 122°24'1 1.6
2018-Apr-13 21:30N 37°49' W 122°25'0 0.0
2018-Apr-13 21:00N 37°49' W 122°25'0 0.0
2018-Apr-13 20:30N 37°49' W 122°25'0 0.0
2018-Apr-13 20:00N 37°49' W 122°25'0 0.2
2018-Apr-13 19:31N 37°49' W 122°25'510.6
2018-Apr-13 19:01N 37°48' W 122°18'0 0.1
2018-Apr-13 18:31N 37°48' W 122°18'510.4
2018-Apr-13 18:00N 37°49' W 122°25'0 0.0
2018-Apr-13 17:30N 37°49' W 122°25'0 0.0
2018-Apr-13 17:00N 37°49' W 122°25'0 0.0
2018-Apr-13 16:30N 37°49' W 122°25'4 7.8
2018-Apr-13 16:01N 37°48' W 122°20'2 4.9
2018-Apr-13 15:30N 37°48' W 122°17'5 9.6
2018-Apr-13 15:00N 37°48' W 122°23'5 9.3
2018-Apr-13 14:30N 37°48' W 122°17'0 0.0
2018-Apr-13 13:30N 37°48' W 122°17'2 3.5
2018-Apr-13 13:01N 37°48' W 122°19'5 9.2
2018-Apr-13 12:31N 37°49' W 122°25'0 0.0
2018-Apr-13 03:45N 37°49' W 122°25'1 4.9
2018-Apr-13 03:31N 37°48' W 122°24'510.4
2018-Apr-13 03:00N 37°48' W 122°17'5 9.9
2018-Apr-13 02:31N 37°48' W 122°23'5 9.9
2018-Apr-13 02:00N 37°48' W 122°17'510.6
2018-Apr-13 01:31N 37°48' W 122°23'510.0
2018-Apr-13 01:00N 37°48' W 122°17'2 4.3
2018-Apr-13 00:30N 37°48' W 122°20'3 6.0
2018-Apr-13 00:01N 37°48' W 122°24'2 3.8
2018-Apr-12 23:30N 37°48' W 122°21'3 6.9
2018-Apr-12 23:00N 37°48' W 122°17'612.5
2018-Apr-12 22:30N 37°49' W 122°25'0 0.0
2018-Apr-12 22:00N 37°49' W 122°25'0 0.0
2018-Apr-12 21:30N 37°49' W 122°25'0 0.0
2018-Apr-12 21:00N 37°49' W 122°25'0 0.0
2018-Apr-12 20:30N 37°49' W 122°25'0 0.0
2018-Apr-12 20:00N 37°49' W 122°25'0 0.0
2018-Apr-12 19:30N 37°49' W 122°25'0 0.0
2018-Apr-12 19:00N 37°49' W 122°25'0 0.0
2018-Apr-12 18:30N 37°49' W 122°25'  

Dump ship's entire track history